Time;durP1;ratioP1;P1;durP2;ratioP2;P2;SDS_P1;SDS_P2;PMS_P1;PMS_P2;Temp;Humidity;BMP_temperature;BMP_pressure;BME280_temperature;BME280_humidity;BME280_pressure;Samples;Min_cycle;Max_cycle;Signal;HPM_P1;HPM_P2
2023/04/10 00:00:08;;;;;;;34.30;20.23;;;9.20;99.90;;;;;;5061742;28;20123;-81
2023/04/10 00:02:35;;;;;;;35.95;22.00;;;9.20;99.90;;;;;;5064354;28;20043;-81
2023/04/10 00:05:01;;;;;;;37.05;21.45;;;9.20;99.90;;;;;;5059971;28;20417;-83
2023/04/10 00:07:26;;;;;;;38.47;23.77;;;9.20;99.90;;;;;;5059331;28;20029;-81
2023/04/10 00:09:52;;;;;;;34.47;22.15;;;9.20;99.90;;;;;;5062818;28;20024;-81
2023/04/10 00:12:18;;;;;;;40.13;23.50;;;9.20;99.90;;;;;;5058142;28;20035;-82
2023/04/10 00:14:43;;;;;;;37.25;23.55;;;9.20;99.90;;;;;;5059515;28;20029;-81
2023/04/10 00:17:10;;;;;;;35.30;22.15;;;9.20;99.90;;;;;;5062243;28;20033;-82
2023/04/10 00:19:35;;;;;;;41.65;23.88;;;9.20;99.90;;;;;;5060729;28;20024;-81
2023/04/10 00:22:01;;;;;;;41.17;25.27;;;9.20;99.90;;;;;;5058172;28;20638;-81
2023/04/10 00:24:27;;;;;;;43.10;22.00;;;9.20;99.90;;;;;;5061763;28;20047;-81
2023/04/10 00:26:52;;;;;;;40.90;24.27;;;9.30;99.90;;;;;;5063406;28;20510;-82
2023/04/10 00:29:18;;;;;;;38.38;25.70;;;9.20;99.90;;;;;;5062816;28;20104;-81
2023/04/10 00:31:44;;;;;;;37.30;23.35;;;9.20;99.90;;;;;;5058862;28;20033;-81
2023/04/10 00:34:10;;;;;;;40.50;25.33;;;9.20;99.90;;;;;;5060526;28;20522;-82
2023/04/10 00:36:36;;;;;;;43.35;25.65;;;9.20;99.90;;;;;;5054223;28;20029;-81
2023/04/10 00:39:02;;;;;;;43.20;25.80;;;9.20;99.90;;;;;;5061118;28;20043;-81
2023/04/10 00:41:28;;;;;;;40.58;24.13;;;9.20;99.90;;;;;;5063432;28;20527;-82
2023/04/10 00:43:57;;;;;;;42.65;25.45;;;9.20;99.90;;;;;;5058040;28;20047;-82
2023/04/10 00:46:23;;;;;;;43.42;25.83;;;9.20;99.90;;;;;;5052212;28;20035;-83
2023/04/10 00:48:51;;;;;;;39.13;23.80;;;9.20;99.90;;;;;;5062003;28;20033;-81
2023/04/10 00:51:19;;;;;;;38.80;23.75;;;9.20;99.90;;;;;;5060166;28;20072;-81
2023/04/10 00:53:50;;;;;;;45.53;26.08;;;9.20;99.90;;;;;;5058200;28;20040;-81
2023/04/10 00:56:17;;;;;;;57.90;28.88;;;9.20;99.90;;;;;;5059050;28;20393;-81
2023/04/10 00:58:42;;;;;;;42.22;26.60;;;9.20;99.90;;;;;;5061313;28;20132;-81
2023/04/10 01:01:08;;;;;;;37.65;23.73;;;9.30;99.90;;;;;;5057835;28;20476;-81
2023/04/10 01:03:34;;;;;;;37.88;23.48;;;9.20;99.90;;;;;;5059398;28;20025;-82
2023/04/10 01:06:11;;;;;;;41.53;23.92;;;9.20;99.90;;;;;;5061977;28;20025;-82
2023/04/10 01:09:33;;;;;;;38.85;25.23;;;9.20;99.90;;;;;;5060105;28;20047;-82
2023/04/10 01:12:32;;;;;;;46.10;25.42;;;9.20;99.90;;;;;;5016220;28;20029;-81
2023/04/10 01:15:07;;;;;;;38.20;24.50;;;9.10;99.90;;;;;;5002197;28;20338;-83
2023/04/10 01:17:41;;;;;;;47.50;25.58;;;9.20;99.90;;;;;;5055511;28;20138;-81
2023/04/10 01:20:10;;;;;;;38.53;24.45;;;9.20;99.90;;;;;;5062659;28;20043;-81
2023/04/10 01:23:00;;;;;;;37.95;23.35;;;9.30;99.90;;;;;;5062592;28;20040;-82
2023/04/10 01:25:47;;;;;;;37.30;24.10;;;9.30;99.90;;;;;;5062063;28;20141;-81
2023/04/10 01:28:18;;;;;;;52.78;24.23;;;9.30;99.90;;;;;;5052417;28;20039;-83
2023/04/10 01:30:51;;;;;;;42.85;24.77;;;9.30;99.90;;;;;;5060369;28;20032;-81
2023/04/10 01:33:19;;;;;;;36.22;23.88;;;9.30;99.90;;;;;;5062072;28;20067;-81
2023/04/10 01:35:51;;;;;;;40.33;24.92;;;9.20;99.90;;;;;;5067751;28;20050;-81
2023/04/10 01:38:19;;;;;;;42.35;25.27;;;9.20;99.90;;;;;;5054275;28;20059;-81
2023/04/10 01:40:50;;;;;;;37.88;23.08;;;9.10;99.90;;;;;;5065358;28;20044;-82
2023/04/10 01:43:17;;;;;;;42.03;25.35;;;9.10;99.90;;;;;;5063931;28;20031;-81
2023/04/10 01:45:45;;;;;;;39.65;24.00;;;9.10;99.90;;;;;;5061510;28;20107;-81
2023/04/10 01:48:11;;;;;;;37.00;23.30;;;9.20;99.90;;;;;;5060356;28;20048;-81
2023/04/10 01:50:38;;;;;;;34.78;20.38;;;9.10;99.90;;;;;;5065066;28;20066;-81
2023/04/10 01:53:06;;;;;;;29.25;18.02;;;9.10;99.90;;;;;;5063303;28;20039;-81
2023/04/10 01:55:33;;;;;;;31.65;18.50;;;9.10;99.90;;;;;;5062712;28;20074;-81
2023/04/10 01:58:00;;;;;;;29.80;17.33;;;9.10;99.90;;;;;;5062977;28;20035;-81
2023/04/10 02:00:26;;;;;;;22.50;15.38;;;9.10;99.90;;;;;;5066877;28;20008;-81
2023/04/10 02:02:52;;;;;;;25.65;14.88;;;9.10;99.90;;;;;;5062605;28;20598;-81
2023/04/10 02:05:18;;;;;;;21.75;14.07;;;9.10;99.90;;;;;;5065069;28;20337;-81
2023/04/10 02:07:59;;;;;;;21.15;13.35;;;9.10;99.90;;;;;;5062758;28;20033;-81
2023/04/10 02:10:31;;;;;;;18.60;12.73;;;9.10;99.90;;;;;;5063121;28;20026;-81
2023/04/10 02:13:05;;;;;;;20.48;13.05;;;9.10;99.90;;;;;;5060611;28;20035;-81
2023/04/10 02:15:32;;;;;;;19.50;11.85;;;9.10;99.90;;;;;;5063902;28;20021;-81
2023/04/10 02:17:59;;;;;;;18.88;12.27;;;9.00;99.90;;;;;;5064920;28;20028;-81
2023/04/10 02:20:26;;;;;;;18.63;12.52;;;9.00;99.90;;;;;;5055836;28;20033;-81
2023/04/10 02:22:53;;;;;;;22.35;13.38;;;9.00;99.90;;;;;;5059467;28;20060;-81
2023/04/10 02:25:18;;;;;;;18.60;12.20;;;8.90;99.90;;;;;;5056530;28;20036;-80
2023/04/10 02:27:44;;;;;;;17.25;12.13;;;8.80;99.90;;;;;;5064314;28;20039;-80
2023/04/10 02:30:10;;;;;;;17.63;11.10;;;8.80;99.90;;;;;;5065231;28;20153;-80
2023/04/10 02:32:36;;;;;;;19.65;12.27;;;8.70;99.90;;;;;;5065113;28;20032;-80
2023/04/10 02:35:03;;;;;;;22.25;13.98;;;8.60;99.90;;;;;;5054078;28;20040;-80
2023/04/10 02:37:29;;;;;;;26.25;14.43;;;8.50;99.90;;;;;;5061175;28;20109;-80
2023/04/10 02:39:55;;;;;;;22.50;13.55;;;8.40;99.90;;;;;;5062524;28;20033;-80
2023/04/10 02:42:21;;;;;;;19.27;12.07;;;8.30;99.90;;;;;;5063099;28;20121;-80
2023/04/10 02:44:47;;;;;;;20.00;12.93;;;8.20;99.90;;;;;;5062250;28;20047;-80
2023/04/10 02:47:13;;;;;;;23.20;14.50;;;8.20;99.90;;;;;;5064766;28;20108;-80
2023/04/10 02:49:38;;;;;;;20.77;15.25;;;8.10;99.90;;;;;;5065969;28;20071;-80
2023/04/10 02:52:04;;;;;;;22.38;14.00;;;8.00;99.90;;;;;;5066486;28;20093;-80
2023/04/10 02:54:30;;;;;;;26.02;16.05;;;7.90;99.90;;;;;;5063391;28;20059;-80
2023/04/10 02:56:57;;;;;;;27.95;16.90;;;7.80;99.90;;;;;;5062504;28;20044;-80
2023/04/10 02:59:23;;;;;;;29.45;17.65;;;7.70;99.90;;;;;;5063857;28;20024;-80
2023/04/10 03:01:51;;;;;;;25.90;16.55;;;7.60;99.90;;;;;;5056202;28;20039;-80
2023/04/10 03:04:17;;;;;;;28.02;17.42;;;7.40;99.90;;;;;;5066035;28;20499;-80
2023/04/10 03:06:43;;;;;;;25.75;16.60;;;7.20;99.90;;;;;;5063279;28;20032;-80
2023/04/10 03:09:08;;;;;;;24.15;15.35;;;7.10;99.90;;;;;;5061611;28;20036;-79
2023/04/10 03:11:34;;;;;;;29.00;17.08;;;7.00;99.90;;;;;;5052757;28;20453;-80
2023/04/10 03:14:00;;;;;;;22.70;15.13;;;6.80;99.90;;;;;;5064770;28;20078;-80
2023/04/10 03:16:26;;;;;;;23.17;15.25;;;6.70;99.90;;;;;;5064147;28;20428;-80
2023/04/10 03:18:55;;;;;;;24.10;14.88;;;6.50;99.90;;;;;;5064370;28;20028;-80
2023/04/10 03:21:21;;;;;;;25.67;15.63;;;6.50;99.90;;;;;;5053427;28;20025;-80
2023/04/10 03:23:47;;;;;;;27.63;15.10;;;6.40;99.90;;;;;;5063131;28;20508;-80
2023/04/10 03:26:12;;;;;;;22.73;14.27;;;6.30;99.90;;;;;;5061572;28;20037;-80
2023/04/10 03:28:38;;;;;;;23.52;15.40;;;6.20;99.90;;;;;;5064252;28;20028;-80
2023/04/10 03:31:04;;;;;;;22.65;14.60;;;6.10;99.90;;;;;;5058675;28;20111;-80
2023/04/10 03:33:30;;;;;;;24.33;14.85;;;6.00;99.90;;;;;;5065338;28;20406;-80
2023/04/10 03:35:56;;;;;;;23.65;14.95;;;6.00;99.90;;;;;;5063050;28;20032;-80
2023/04/10 03:38:22;;;;;;;23.05;15.05;;;5.90;99.90;;;;;;5063114;28;20035;-80
2023/04/10 03:40:48;;;;;;;25.52;14.50;;;5.90;99.90;;;;;;5064719;28;20428;-80
2023/04/10 03:43:13;;;;;;;20.25;13.43;;;5.80;99.90;;;;;;5064337;28;20028;-80
2023/04/10 03:45:39;;;;;;;23.67;14.43;;;5.80;99.90;;;;;;5062615;28;20028;-80
2023/04/10 03:48:05;;;;;;;21.67;14.23;;;5.80;99.90;;;;;;5062306;28;20024;-80
2023/04/10 03:50:31;;;;;;;23.75;14.25;;;5.70;99.90;;;;;;5055623;28;20425;-80
2023/04/10 03:52:56;;;;;;;23.77;16.13;;;5.70;99.90;;;;;;5062129;28;20419;-80
2023/04/10 03:55:22;;;;;;;20.92;13.85;;;5.70;99.90;;;;;;5061634;28;20497;-80
2023/04/10 03:57:48;;;;;;;26.17;15.55;;;5.70;99.90;;;;;;5064532;28;20032;-81
2023/04/10 04:00:15;;;;;;;27.00;15.18;;;5.70;99.90;;;;;;5060289;28;20477;-80
2023/04/10 04:02:41;;;;;;;27.45;16.05;;;5.60;99.90;;;;;;5060609;28;20263;-80
2023/04/10 04:05:07;;;;;;;33.10;18.00;;;5.50;99.90;;;;;;5062287;28;20037;-80
2023/04/10 04:07:33;;;;;;;26.77;16.02;;;5.50;99.90;;;;;;5062411;28;20536;-80
2023/04/10 04:10:07;;;;;;;24.42;16.00;;;5.60;99.90;;;;;;5065341;28;20025;-81
2023/04/10 04:12:33;;;;;;;27.25;16.08;;;5.50;99.90;;;;;;5063524;28;20055;-81
2023/04/10 04:14:58;;;;;;;26.40;16.35;;;5.50;99.90;;;;;;5062797;28;20060;-80
2023/04/10 04:17:24;;;;;;;29.67;16.15;;;5.50;99.90;;;;;;5058189;28;20028;-81
2023/04/10 04:19:50;;;;;;;31.95;18.17;;;5.40;99.90;;;;;;5062313;28;20081;-80
2023/04/10 04:22:16;;;;;;;27.10;16.65;;;5.40;99.90;;;;;;5062588;28;20037;-80
2023/04/10 04:24:41;;;;;;;33.78;18.73;;;5.30;99.90;;;;;;5059978;28;20458;-83
2023/04/10 04:27:07;;;;;;;29.13;18.05;;;5.30;99.90;;;;;;5056169;28;20031;-81
2023/04/10 04:29:32;;;;;;;33.05;19.45;;;5.20;99.90;;;;;;5061634;28;20039;-80
2023/04/10 04:31:58;;;;;;;28.27;17.27;;;5.20;99.90;;;;;;5060020;28;20146;-81
2023/04/10 04:34:24;;;;;;;29.25;18.27;;;5.10;99.90;;;;;;5063216;28;20477;-81
2023/04/10 04:36:49;;;;;;;28.83;17.98;;;5.10;99.90;;;;;;5062097;28;20119;-81
2023/04/10 04:39:15;;;;;;;29.45;18.02;;;5.10;99.90;;;;;;5063070;28;20094;-81
2023/04/10 04:41:41;;;;;;;29.85;17.90;;;5.10;99.90;;;;;;5063712;28;20522;-80
2023/04/10 04:44:06;;;;;;;28.92;16.92;;;5.10;99.90;;;;;;5058333;28;20500;-80
2023/04/10 04:46:32;;;;;;;27.27;16.05;;;5.10;99.90;;;;;;5062891;28;20036;-80
2023/04/10 04:48:58;;;;;;;30.88;18.35;;;5.10;99.90;;;;;;5060972;28;20032;-80
2023/04/10 04:51:23;;;;;;;25.83;15.75;;;5.10;99.90;;;;;;5062268;28;20024;-80
2023/04/10 04:53:49;;;;;;;22.92;14.55;;;5.10;99.90;;;;;;5062901;28;20040;-81
2023/04/10 04:56:15;;;;;;;25.27;14.88;;;5.10;99.90;;;;;;5057392;28;20024;-80
2023/04/10 04:58:40;;;;;;;23.42;15.10;;;5.20;99.90;;;;;;5060803;28;20063;-80
2023/04/10 05:01:07;;;;;;;22.10;13.52;;;5.20;99.90;;;;;;5061310;28;20082;-81
2023/04/10 05:03:32;;;;;;;19.63;12.23;;;5.20;99.90;;;;;;5063434;28;20031;-80
2023/04/10 05:05:58;;;;;;;22.25;14.30;;;5.20;99.90;;;;;;5066291;28;20033;-81
2023/04/10 05:08:24;;;;;;;19.27;12.27;;;5.20;99.90;;;;;;5067062;28;20021;-81
2023/04/10 05:10:49;;;;;;;17.15;11.27;;;5.20;99.90;;;;;;5062009;28;20037;-81
2023/04/10 05:13:16;;;;;;;17.63;11.93;;;5.20;99.90;;;;;;5064378;28;20029;-81
2023/04/10 05:15:43;;;;;;;18.65;11.82;;;5.20;99.90;;;;;;5066086;28;20024;-81
2023/04/10 05:18:09;;;;;;;18.83;11.90;;;5.20;99.90;;;;;;5066271;28;20032;-80
2023/04/10 05:20:35;;;;;;;23.98;13.10;;;5.20;99.90;;;;;;5065914;28;20370;-81
2023/04/10 05:23:00;;;;;;;19.73;12.57;;;5.20;99.90;;;;;;5065682;28;20017;-81
2023/04/10 05:25:26;;;;;;;20.60;12.15;;;5.30;99.90;;;;;;5066097;28;20044;-81
2023/04/10 05:27:56;;;;;;;16.98;11.00;;;5.30;99.90;;;;;;5060875;28;20024;-80
2023/04/10 05:30:21;;;;;;;18.33;11.68;;;5.30;99.90;;;;;;5066283;28;20489;-81
2023/04/10 05:32:47;;;;;;;23.73;13.60;;;5.40;99.90;;;;;;5065746;28;20090;-81
2023/04/10 05:35:13;;;;;;;21.20;13.00;;;5.40;99.90;;;;;;5063051;28;20127;-80
2023/04/10 05:37:38;;;;;;;20.33;12.65;;;5.50;99.90;;;;;;5064068;28;20090;-81
2023/04/10 05:40:06;;;;;;;19.27;12.15;;;5.50;99.90;;;;;;5063689;28;20056;-81
2023/04/10 05:42:31;;;;;;;24.77;15.50;;;5.60;99.90;;;;;;5057670;28;20024;-82
2023/04/10 05:44:57;;;;;;;25.73;16.33;;;5.70;99.90;;;;;;5059598;28;20098;-82
2023/04/10 05:47:23;;;;;;;26.13;15.45;;;5.80;99.90;;;;;;5060462;28;20029;-82
2023/04/10 05:49:48;;;;;;;29.52;18.10;;;5.90;99.90;;;;;;5059035;28;20029;-82
2023/04/10 05:52:14;;;;;;;25.20;16.40;;;6.00;99.90;;;;;;5060818;28;20440;-82
2023/04/10 05:54:39;;;;;;;27.88;16.67;;;6.00;99.90;;;;;;5062458;28;20021;-82
2023/04/10 05:57:05;;;;;;;23.77;15.43;;;6.10;99.90;;;;;;5058000;28;20075;-82
2023/04/10 05:59:30;;;;;;;26.13;17.02;;;6.20;99.90;;;;;;5064576;28;20469;-82
2023/04/10 06:01:59;;;;;;;26.45;15.70;;;6.30;99.90;;;;;;5054723;28;20027;-82
2023/04/10 06:04:25;;;;;;;22.52;15.23;;;6.30;99.90;;;;;;5061321;28;20481;-82
2023/04/10 06:06:51;;;;;;;20.88;13.60;;;6.40;99.90;;;;;;5058311;28;20017;-82
2023/04/10 06:09:16;;;;;;;31.52;18.67;;;6.50;99.90;;;;;;5061213;28;20031;-82
2023/04/10 06:11:42;;;;;;;29.73;18.80;;;6.60;99.90;;;;;;5049170;28;20036;-82
2023/04/10 06:14:07;;;;;;;30.55;18.38;;;6.60;99.90;;;;;;5063232;28;20033;-82
2023/04/10 06:16:33;;;;;;;30.48;18.65;;;6.70;99.90;;;;;;5062593;28;20025;-82
2023/04/10 06:18:59;;;;;;;27.98;17.23;;;6.80;99.90;;;;;;5063905;28;20272;-82
2023/04/10 06:21:25;;;;;;;30.70;18.20;;;6.80;99.90;;;;;;5062996;28;20021;-82
2023/04/10 06:23:50;;;;;;;31.58;18.92;;;6.90;99.90;;;;;;5061437;28;20119;-82
2023/04/10 06:26:16;;;;;;;27.35;17.83;;;7.00;99.90;;;;;;5055548;28;20132;-82
2023/04/10 06:28:42;;;;;;;27.40;16.88;;;7.10;99.90;;;;;;5060533;28;20071;-81
2023/04/10 06:31:07;;;;;;;33.70;18.65;;;7.20;99.90;;;;;;5061094;28;20279;-82
2023/04/10 06:33:36;;;;;;;30.98;17.95;;;7.30;99.90;;;;;;5065066;28;20501;-82
2023/04/10 06:36:03;;;;;;;30.00;17.23;;;7.30;99.90;;;;;;5057175;28;20082;-81
2023/04/10 06:38:29;;;;;;;29.42;18.38;;;7.40;99.90;;;;;;5067259;28;20025;-81
2023/04/10 06:40:55;;;;;;;29.25;18.95;;;7.50;99.90;;;;;;5058240;28;20051;-82
2023/04/10 06:43:20;;;;;;;31.15;19.08;;;7.60;99.90;;;;;;5061315;28;20025;-82
2023/04/10 06:45:46;;;;;;;29.90;18.33;;;7.80;99.90;;;;;;5062723;28;20045;-81
2023/04/10 06:48:12;;;;;;;29.05;18.58;;;7.80;99.90;;;;;;5054909;28;20068;-81
2023/04/10 06:50:37;;;;;;;36.55;21.55;;;7.90;99.90;;;;;;5058782;28;20024;-81
2023/04/10 06:53:03;;;;;;;35.63;20.80;;;8.10;99.90;;;;;;5061026;28;20088;-82
2023/04/10 06:55:29;;;;;;;30.85;20.65;;;8.10;99.90;;;;;;5062069;28;20543;-81
2023/04/10 06:57:56;;;;;;;35.58;20.83;;;8.20;99.90;;;;;;5060915;28;20029;-83
2023/04/10 07:00:22;;;;;;;33.15;20.48;;;8.40;99.90;;;;;;5060686;28;20432;-82
2023/04/10 07:02:48;;;;;;;29.75;19.73;;;8.50;99.90;;;;;;5056283;28;20115;-82
2023/04/10 07:05:15;;;;;;;36.13;20.90;;;8.60;99.90;;;;;;5059417;28;20147;-82
2023/04/10 07:07:41;;;;;;;30.48;19.80;;;8.80;99.90;;;;;;5055921;28;20107;-82
2023/04/10 07:10:07;;;;;;;32.83;18.92;;;9.00;99.90;;;;;;5061058;28;20025;-81
2023/04/10 07:12:33;;;;;;;36.03;20.88;;;9.10;99.90;;;;;;5061699;28;20112;-82
2023/04/10 07:14:59;;;;;;;32.83;18.48;;;9.30;99.90;;;;;;5060135;28;20460;-82
2023/04/10 07:17:24;;;;;;;31.08;19.80;;;9.40;99.90;;;;;;5059365;28;20029;-83
2023/04/10 07:19:53;;;;;;;30.85;19.98;;;9.60;99.90;;;;;;5061483;28;20043;-82
2023/04/10 07:22:18;;;;;;;31.52;18.92;;;9.70;99.90;;;;;;5055940;28;20143;-81
2023/04/10 07:24:44;;;;;;;33.80;18.38;;;9.80;99.90;;;;;;5064114;28;20121;-82
2023/04/10 07:27:11;;;;;;;29.25;18.83;;;10.00;99.90;;;;;;5055861;28;20025;-82
2023/04/10 07:29:37;;;;;;;27.55;18.67;;;10.00;99.90;;;;;;5057909;28;20526;-83
2023/04/10 07:32:03;;;;;;;28.50;18.75;;;10.20;99.90;;;;;;5060950;28;20107;-81
2023/04/10 07:34:30;;;;;;;32.75;18.85;;;10.20;99.90;;;;;;5058775;28;20428;-82
2023/04/10 07:36:55;;;;;;;27.10;17.58;;;10.40;99.90;;;;;;5060009;28;20043;-82
2023/04/10 07:39:21;;;;;;;28.67;18.65;;;10.50;99.90;;;;;;5058166;28;20029;-81
2023/04/10 07:41:46;;;;;;;29.90;18.33;;;10.60;99.90;;;;;;5057815;28;20157;-81
2023/04/10 07:44:13;;;;;;;28.40;17.98;;;10.60;99.90;;;;;;5056578;28;20040;-83
2023/04/10 07:46:39;;;;;;;23.65;16.20;;;10.70;99.90;;;;;;5058245;28;20028;-81
2023/04/10 07:49:05;;;;;;;24.98;16.13;;;10.70;99.90;;;;;;5055132;28;20040;-81
2023/04/10 07:51:30;;;;;;;28.27;17.27;;;10.70;99.90;;;;;;5058518;28;20078;-82
2023/04/10 07:53:56;;;;;;;24.42;16.33;;;10.80;99.90;;;;;;5060408;28;20668;-81
2023/04/10 07:56:22;;;;;;;24.27;16.92;;;10.90;99.90;;;;;;5054961;28;20059;-82
2023/04/10 07:58:48;;;;;;;33.33;16.60;;;10.90;99.90;;;;;;5065547;28;20473;-81
2023/04/10 08:01:14;;;;;;;25.80;15.60;;;10.90;99.90;;;;;;5056293;28;20020;-82
2023/04/10 08:03:46;;;;;;;25.15;16.40;;;11.00;99.90;;;;;;5059272;28;20031;-81
2023/04/10 08:06:12;;;;;;;21.48;14.57;;;11.10;99.90;;;;;;5067075;28;20032;-82
2023/04/10 08:08:39;;;;;;;25.63;16.13;;;11.20;99.90;;;;;;5056995;28;20051;-81
2023/04/10 08:11:29;;;;;;;20.10;14.00;;;11.20;99.90;;;;;;5053320;28;20291;-82
2023/04/10 08:14:04;;;;;;;20.70;14.30;;;11.30;99.90;;;;;;5061619;28;20028;-81
2023/04/10 08:16:32;;;;;;;21.77;14.70;;;11.30;99.90;;;;;;5057647;28;20024;-81
2023/04/10 08:18:58;;;;;;;23.85;15.02;;;11.40;99.90;;;;;;5059539;28;20689;-81
2023/04/10 08:21:28;;;;;;;22.38;14.90;;;11.40;99.90;;;;;;5064435;28;20048;-82
2023/04/10 08:23:56;;;;;;;18.13;13.80;;;11.50;99.90;;;;;;5062285;28;20044;-82
2023/04/10 08:26:22;;;;;;;19.13;13.65;;;11.60;99.90;;;;;;5059494;28;20025;-82
2023/04/10 08:28:53;;;;;;;21.63;13.77;;;11.60;99.90;;;;;;5065127;28;20497;-81
2023/04/10 08:31:20;;;;;;;23.73;14.63;;;11.70;99.90;;;;;;5064814;28;20052;-81
2023/04/10 08:33:46;;;;;;;21.25;14.00;;;11.70;99.90;;;;;;5061800;28;20044;-81
2023/04/10 08:36:14;;;;;;;21.05;14.00;;;11.70;99.90;;;;;;5061867;28;20071;-82
2023/04/10 08:38:43;;;;;;;28.08;15.57;;;11.70;99.90;;;;;;5064265;28;20081;-81
2023/04/10 08:41:14;;;;;;;26.65;15.88;;;11.80;99.90;;;;;;5059994;28;20052;-81
2023/04/10 08:43:40;;;;;;;23.42;15.50;;;11.80;99.90;;;;;;5065250;28;20020;-81
2023/04/10 08:46:06;;;;;;;21.67;15.02;;;12.00;99.90;;;;;;5066670;28;20028;-80
2023/04/10 08:48:39;;;;;;;23.40;15.20;;;12.20;99.90;;;;;;5068462;28;20029;-81
2023/04/10 08:51:17;;;;;;;22.35;14.05;;;12.30;99.90;;;;;;5065872;28;20032;-85
2023/04/10 08:53:44;;;;;;;24.80;15.55;;;12.30;99.90;;;;;;5066476;28;20109;-81
2023/04/10 08:56:13;;;;;;;22.30;14.38;;;12.40;99.90;;;;;;5061380;28;20032;-81
2023/04/10 08:58:41;;;;;;;18.70;12.57;;;12.50;99.90;;;;;;5064859;28;20028;-83
2023/04/10 09:01:09;;;;;;;19.27;12.45;;;12.50;99.90;;;;;;5063547;28;20017;-85
2023/04/10 09:03:35;;;;;;;21.08;13.20;;;12.40;99.90;;;;;;5070331;28;20022;-82
2023/04/10 09:06:03;;;;;;;23.25;14.00;;;12.50;99.90;;;;;;5067042;28;20082;-82
2023/04/10 09:08:30;;;;;;;17.58;12.65;;;12.60;99.90;;;;;;5054713;28;20039;-80
2023/04/10 09:10:56;;;;;;;17.98;13.00;;;12.70;99.90;;;;;;5063763;28;20366;-82
2023/04/10 09:13:36;;;;;;;21.83;13.15;;;12.70;99.90;;;;;;5064226;28;20554;-82
2023/04/10 09:16:03;;;;;;;21.60;13.77;;;12.70;99.90;;;;;;5058116;28;20047;-82
2023/04/10 09:18:49;;;;;;;21.63;14.10;;;12.70;99.90;;;;;;5053073;28;20037;-81
2023/04/10 09:21:20;;;;;;;19.75;13.20;;;12.80;99.90;;;;;;5063933;28;20272;-82
2023/04/10 09:23:47;;;;;;;18.65;13.77;;;12.80;99.90;;;;;;5058186;28;20297;-80
2023/04/10 09:26:38;;;;;;;17.92;11.98;;;12.90;99.90;;;;;;5059588;28;20029;-83
2023/04/10 09:29:05;;;;;;;17.48;12.35;;;13.00;99.90;;;;;;5061484;28;20075;-80
2023/04/10 09:31:36;;;;;;;18.95;12.63;;;13.00;99.90;;;;;;5064159;28;20051;-81
2023/04/10 09:34:07;;;;;;;21.48;13.60;;;13.10;99.90;;;;;;5063971;28;20032;-80
2023/04/10 09:36:33;;;;;;;20.25;13.48;;;13.10;99.90;;;;;;5060226;28;20473;-79
2023/04/10 09:38:59;;;;;;;21.35;12.43;;;13.20;99.90;;;;;;5060207;28;20016;-83
2023/04/10 09:41:25;;;;;;;19.90;13.13;;;13.20;99.90;;;;;;5061806;28;20041;-80
2023/04/10 09:44:06;;;;;;;18.73;13.55;;;13.20;99.90;;;;;;5066558;28;20098;-80
2023/04/10 09:46:31;;;;;;;21.88;14.50;;;13.20;99.90;;;;;;5061240;28;20386;-82
2023/04/10 09:48:58;;;;;;;19.98;13.32;;;13.30;99.90;;;;;;5063215;28;20127;-83
2023/04/10 09:51:30;;;;;;;18.30;13.55;;;13.30;99.90;;;;;;5058140;28;20110;-80
2023/04/10 09:53:56;;;;;;;22.77;13.85;;;13.30;99.90;;;;;;5062579;28;20032;-84
2023/04/10 09:56:25;;;;;;;18.33;12.70;;;13.40;99.90;;;;;;5057438;28;20076;-80
2023/04/10 09:58:52;;;;;;;19.92;12.57;;;13.50;99.90;;;;;;5064828;28;20078;-80
2023/04/10 10:01:19;;;;;;;18.58;11.50;;;13.50;99.90;;;;;;5054688;28;20032;-81
2023/04/10 10:03:45;;;;;;;17.63;10.98;;;13.50;99.90;;;;;;5058593;28;20024;-82
2023/04/10 10:06:11;;;;;;;19.30;11.90;;;13.50;99.90;;;;;;5062799;28;20036;-81
2023/04/10 10:08:36;;;;;;;18.52;10.80;;;13.50;99.90;;;;;;5064561;28;20021;-82
2023/04/10 10:11:08;;;;;;;15.80;11.38;;;13.60;99.90;;;;;;5064217;28;20032;-80
2023/04/10 10:13:46;;;;;;;15.82;11.23;;;13.60;99.90;;;;;;5062777;28;20024;-79
2023/04/10 10:16:14;;;;;;;15.23;10.48;;;13.60;99.90;;;;;;5061839;28;20397;-81
2023/04/10 10:18:47;;;;;;;16.50;9.45;;;13.70;99.90;;;;;;5065044;28;20520;-83
2023/04/10 10:21:14;;;;;;;15.50;9.77;;;13.70;99.90;;;;;;5061443;28;20385;-80
2023/04/10 10:23:42;;;;;;;14.85;9.23;;;13.80;99.90;;;;;;5060128;28;20388;-83
2023/04/10 10:26:09;;;;;;;14.73;10.18;;;13.70;99.90;;;;;;5059604;28;20039;-81
2023/04/10 10:28:36;;;;;;;17.13;9.57;;;13.80;99.90;;;;;;5060769;28;20353;-80
2023/04/10 10:31:05;;;;;;;14.38;10.05;;;13.90;99.90;;;;;;5063030;28;20024;-79
2023/04/10 10:33:34;;;;;;;13.88;9.57;;;14.00;99.90;;;;;;5062841;28;20032;-80
2023/04/10 10:36:02;;;;;;;12.00;9.40;;;14.10;99.90;;;;;;5059896;28;20027;-79
2023/04/10 10:38:30;;;;;;;14.93;9.43;;;14.30;99.90;;;;;;5059264;28;20051;-78
2023/04/10 10:41:11;;;;;;;16.63;10.70;;;14.30;99.50;;;;;;5061999;28;20039;-80
2023/04/10 10:43:46;;;;;;;14.60;10.20;;;14.30;99.90;;;;;;5062235;28;20104;-79
2023/04/10 10:46:36;;;;;;;16.90;10.05;;;14.30;99.90;;;;;;5059282;28;21195;-81
2023/04/10 10:49:01;;;;;;;13.98;9.57;;;14.30;99.90;;;;;;5059702;28;20016;-80
2023/04/10 10:51:48;;;;;;;15.27;10.25;;;14.30;99.90;;;;;;5061274;28;20035;-82
2023/04/10 10:54:29;;;;;;;17.98;10.68;;;14.30;99.90;;;;;;5058338;28;20020;-81
2023/04/10 10:56:54;;;;;;;15.18;9.55;;;14.40;99.90;;;;;;5062575;28;20489;-79
2023/04/10 10:59:59;;;;;;;16.88;8.60;;;14.50;99.90;;;;;;5058922;28;20029;-79
2023/04/10 11:02:26;;;;;;;18.33;8.98;;;14.50;99.90;;;;;;5055616;28;20037;-79
2023/04/10 11:04:52;;;;;;;16.73;10.32;;;14.60;99.90;;;;;;5057678;28;20131;-79
2023/04/10 11:07:18;;;;;;;16.65;10.50;;;14.60;99.90;;;;;;5051412;28;20100;-81
2023/04/10 11:09:50;;;;;;;15.85;11.00;;;14.70;99.90;;;;;;5060682;28;20043;-79
2023/04/10 11:12:23;;;;;;;14.13;10.93;;;14.80;99.90;;;;;;5058855;28;20178;-79
2023/04/10 11:15:05;;;;;;;15.60;10.45;;;14.80;99.90;;;;;;5061697;28;20029;-78
2023/04/10 11:17:52;;;;;;;17.65;11.30;;;14.90;99.90;;;;;;5062221;28;20043;-78
2023/04/10 11:20:20;;;;;;;15.98;11.05;;;15.00;99.90;;;;;;5055260;28;20039;-79
2023/04/10 11:23:10;;;;;;;17.73;11.38;;;15.10;99.90;;;;;;5061129;28;20051;-78
2023/04/10 11:25:52;;;;;;;17.98;11.00;;;15.10;99.90;;;;;;5054100;28;20063;-80
2023/04/10 11:28:34;;;;;;;18.65;12.00;;;15.10;99.90;;;;;;5058713;28;20032;-82
2023/04/10 11:31:18;;;;;;;17.60;12.05;;;15.10;99.90;;;;;;5062773;28;20107;-80
2023/04/10 11:33:45;;;;;;;19.77;12.90;;;15.10;99.90;;;;;;5064903;28;20028;-82
2023/04/10 11:36:16;;;;;;;16.55;11.23;;;15.20;99.90;;;;;;5062768;28;20024;-78
2023/04/10 11:38:57;;;;;;;19.95;10.68;;;15.30;99.90;;;;;;5062500;28;20060;-78
2023/04/10 11:41:30;;;;;;;15.82;11.52;;;15.40;99.90;;;;;;5060795;28;20561;-78
2023/04/10 11:44:01;;;;;;;18.25;12.45;;;15.50;99.90;;;;;;5062266;28;20032;-79
2023/04/10 11:46:27;;;;;;;18.48;11.63;;;15.50;98.70;;;;;;5063686;28;20060;-81
2023/04/10 11:48:57;;;;;;;16.10;10.70;;;15.50;99.90;;;;;;5062179;28;20781;-78
2023/04/10 11:51:23;;;;;;;22.55;14.13;;;15.50;99.90;;;;;;5059048;28;20382;-83
2023/04/10 11:53:48;;;;;;;17.67;12.38;;;15.50;99.90;;;;;;5057893;28;20128;-77
2023/04/10 11:56:15;;;;;;;18.10;12.35;;;15.50;99.90;;;;;;5063418;28;20282;-78
2023/04/10 11:58:41;;;;;;;16.52;10.85;;;15.50;99.90;;;;;;5063717;28;20040;-79
2023/04/10 12:01:13;;;;;;;14.02;10.82;;;15.50;99.90;;;;;;5061710;28;20025;-78
2023/04/10 12:03:41;;;;;;;15.20;9.48;;;15.50;99.90;;;;;;5058504;28;20040;-78
2023/04/10 12:06:09;;;;;;;12.95;9.20;;;15.70;96.20;;;;;;5060843;28;20316;-78
2023/04/10 12:08:44;;;;;;;13.93;9.80;;;15.90;92.30;;;;;;5061548;28;20016;-81
2023/04/10 12:11:10;;;;;;;;;;;16.00;95.60;;;;;;5062365;28;20366;-78
2023/04/10 12:13:36;;;;;;;;;;;16.00;90.30;;;;;;5057444;28;19919;-81
2023/04/10 12:16:09;;;;;;;15.15;9.70;;;16.10;94.50;;;;;;5056633;28;19908;-80
2023/04/10 12:18:35;;;;;;;15.50;9.82;;;16.10;98.90;;;;;;5062059;28;20468;-77
2023/04/10 12:21:02;;;;;;;14.73;9.27;;;16.10;94.40;;;;;;5058144;28;20098;-79
2023/04/10 12:23:30;;;;;;;10.50;7.38;;;16.10;93.30;;;;;;5060795;28;20045;-79
2023/04/10 12:26:12;;;;;;;14.32;7.28;;;16.00;93.30;;;;;;5055008;28;20139;-80
2023/04/10 12:28:39;;;;;;;15.77;7.57;;;16.00;94.70;;;;;;5057567;28;20032;-77
2023/04/10 12:31:05;;;;;;;8.75;6.43;;;16.00;99.70;;;;;;5060910;28;20086;-78
2023/04/10 12:33:31;;;;;;;10.20;7.10;;;16.30;96.40;;;;;;5062590;28;20059;-78
2023/04/10 12:35:57;;;;;;;11.85;7.47;;;16.40;93.10;;;;;;5062017;28;20495;-81
2023/04/10 12:38:40;;;;;;;11.35;6.82;;;16.40;84.90;;;;;;5061788;28;20032;-79